Station Historical Data
Daily Summary for June 18, 2017 Units:  Both    English   Metric
« Previous Day
Next Day »
Daily Weekly Monthly Yearly Custom
  High: Low: Average:
Temperature: 87.4 °F /  30.8 °C 69.9 °F /  21.1 °C 77.1 °F /  25.1 °C
Dew Point: 71.5 °F /  21.9 °C 66.1 °F /  18.9 °C 68.6 °F /  20.3 °C
Humidity: 90% 58% 76%
Wind Speed: 15.0mph /  24.1km/h - 4.9mph /  7.9km/h
Wind Gust: 24.0mph /  38.6km/h - -
Wind- - SSW
Pressure: 29.69 in /  1005.3 hPa 29.57 in /  1001.2 hPa -
Precipitation: 0.00 in /  0 mm    
Historical Graphs
 
 
Tabular Data for June 18, 2017
Time Temperature Dew Point Pressure Wind Wind Speed Wind Gust Humidity Rainfall Rate (Hourly)
00:04 78.4 °F /  25.8 °C 66.5 °F /  19.2 °C 29.69in /  1005.3hPa SSE 2.0mph /  3.2km/h 9.0mph /  14.5km/h 67% 0.00in /  0mm
00:09 78.3 °F /  25.7 °C 66.9 °F /  19.4 °C 29.69in /  1005.3hPa South 3.0mph /  4.8km/h 9.0mph /  14.5km/h 68% 0.00in /  0mm
00:14 78.3 °F /  25.7 °C 67.3 °F /  19.6 °C 29.69in /  1005.3hPa South 3.0mph /  4.8km/h 7.0mph /  11.3km/h 69% 0.00in /  0mm
00:19 78.4 °F /  25.8 °C 67.4 °F /  19.7 °C 29.69in /  1005.3hPa South 3.0mph /  4.8km/h 7.0mph /  11.3km/h 69% 0.00in /  0mm
00:24 78.6 °F /  25.9 °C 67.6 °F /  19.8 °C 29.69in /  1005.3hPa SSW 3.0mph /  4.8km/h 8.0mph /  12.9km/h 69% 0.00in /  0mm
00:29 78.8 °F /  26 °C 67.8 °F /  19.9 °C 29.69in /  1005.3hPa SSW 4.0mph /  6.4km/h 9.0mph /  14.5km/h 69% 0.00in /  0mm
00:34 78.8 °F /  26 °C 67.8 °F /  19.9 °C 29.69in /  1005.3hPa SSW 2.0mph /  3.2km/h 9.0mph /  14.5km/h 69% 0.00in /  0mm
00:39 78.9 °F /  26.1 °C 67.9 °F /  19.9 °C 29.68in /  1005hPa South 4.0mph /  6.4km/h 9.0mph /  14.5km/h 69% 0.00in /  0mm
00:44 78.9 °F /  26.1 °C 67.9 °F /  19.9 °C 29.68in /  1005hPa South 4.0mph /  6.4km/h 11.0mph /  17.7km/h 69% 0.00in /  0mm
00:49 78.9 °F /  26.1 °C 68.3 °F /  20.2 °C 29.69in /  1005.3hPa South 4.0mph /  6.4km/h 11.0mph /  17.7km/h 70% 0.00in /  0mm
00:54 79.0 °F /  26.1 °C 68.4 °F /  20.2 °C 29.68in /  1005hPa South 4.0mph /  6.4km/h 10.0mph /  16.1km/h 70% 0.00in /  0mm
00:59 79.0 °F /  26.1 °C 68.4 °F /  20.2 °C 29.68in /  1005hPa South 4.0mph /  6.4km/h 10.0mph /  16.1km/h 70% 0.00in /  0mm
01:05 79.1 °F /  26.2 °C 68.5 °F /  20.3 °C 29.68in /  1005hPa South 4.0mph /  6.4km/h 9.0mph /  14.5km/h 70% 0.00in /  0mm
01:10 79.0 °F /  26.1 °C 68.4 °F /  20.2 °C 29.68in /  1005hPa SW 2.0mph /  3.2km/h 6.0mph /  9.7km/h 70% 0.00in /  0mm
01:15 79.0 °F /  26.1 °C 68.4 °F /  20.2 °C 29.68in /  1005hPa SSW 4.0mph /  6.4km/h 12.0mph /  19.3km/h 70% 0.00in /  0mm
01:20 78.9 °F /  26.1 °C 68.3 °F /  20.2 °C 29.68in /  1005hPa SSW 7.0mph /  11.3km/h 9.0mph /  14.5km/h 70% 0.00in /  0mm
01:25 78.8 °F /  26 °C 68.2 °F /  20.1 °C 29.68in /  1005hPa South 5.0mph /  8km/h 10.0mph /  16.1km/h 70% 0.00in /  0mm
01:30 78.8 °F /  26 °C 68.6 °F /  20.3 °C 29.68in /  1005hPa South 6.0mph /  9.7km/h 10.0mph /  16.1km/h 71% 0.00in /  0mm
01:35 78.6 °F /  25.9 °C 68.4 °F /  20.2 °C 29.68in /  1005hPa SSE 4.0mph /  6.4km/h 6.0mph /  9.7km/h 71% 0.00in /  0mm
01:40 78.3 °F /  25.7 °C 68.1 °F /  20.1 °C 29.67in /  1004.6hPa WSW 2.0mph /  3.2km/h 10.0mph /  16.1km/h 71% 0.00in /  0mm
01:45 78.3 °F /  25.7 °C 68.5 °F /  20.3 °C 29.67in /  1004.6hPa SSW 4.0mph /  6.4km/h 10.0mph /  16.1km/h 72% 0.00in /  0mm
01:50 78.2 °F /  25.7 °C 68.4 °F /  20.2 °C 29.67in /  1004.6hPa SSW 4.0mph /  6.4km/h 10.0mph /  16.1km/h 72% 0.00in /  0mm
01:55 78.0 °F /  25.6 °C 68.2 °F /  20.1 °C 29.67in /  1004.6hPa SSW 3.0mph /  4.8km/h 9.0mph /  14.5km/h 72% 0.00in /  0mm
02:00 77.8 °F /  25.4 °C 68.4 °F /  20.2 °C 29.67in /  1004.6hPa SSW 3.0mph /  4.8km/h 8.0mph /  12.9km/h 73% 0.00in /  0mm
02:05 77.8 °F /  25.4 °C 68.4 °F /  20.2 °C 29.66in /  1004.3hPa SSW 3.0mph /  4.8km/h 8.0mph /  12.9km/h 73% 0.00in /  0mm
02:10 77.7 °F /  25.4 °C 68.4 °F /  20.2 °C 29.66in /  1004.3hPa South 5.0mph /  8km/h 9.0mph /  14.5km/h 73% 0.00in /  0mm
02:15 77.8 °F /  25.4 °C 68.4 °F /  20.2 °C 29.66in /  1004.3hPa SSW 4.0mph /  6.4km/h 12.0mph /  19.3km/h 73% 0.00in /  0mm
02:20 77.7 °F /  25.4 °C 68.4 °F /  20.2 °C 29.66in /  1004.3hPa SW 3.0mph /  4.8km/h 8.0mph /  12.9km/h 73% 0.00in /  0mm
02:25 77.6 °F /  25.3 °C 68.3 °F /  20.2 °C 29.66in /  1004.3hPa South 2.0mph /  3.2km/h 7.0mph /  11.3km/h 73% 0.00in /  0mm
02:30 77.5 °F /  25.3 °C 68.2 °F /  20.1 °C 29.65in /  1003.9hPa SSW 3.0mph /  4.8km/h 9.0mph /  14.5km/h 73% 0.00in /  0mm
02:35 77.4 °F /  25.2 °C 68.1 °F /  20.1 °C 29.65in /  1003.9hPa South 3.0mph /  4.8km/h 10.0mph /  16.1km/h 73% 0.00in /  0mm
02:40 77.3 °F /  25.2 °C 68.0 °F /  20 °C 29.65in /  1003.9hPa South 5.0mph /  8km/h 9.0mph /  14.5km/h 73% 0.00in /  0mm
02:45 77.1 °F /  25.1 °C 68.2 °F /  20.1 °C 29.65in /  1003.9hPa SSW 3.0mph /  4.8km/h 9.0mph /  14.5km/h 74% 0.00in /  0mm
02:50 77.0 °F /  25 °C 68.1 °F /  20.1 °C 29.65in /  1003.9hPa SSW 3.0mph /  4.8km/h 10.0mph /  16.1km/h 74% 0.00in /  0mm
02:55 76.9 °F /  24.9 °C 68.0 °F /  20 °C 29.65in /  1003.9hPa SSW 3.0mph /  4.8km/h 10.0mph /  16.1km/h 74% 0.00in /  0mm
03:00 76.8 °F /  24.9 °C 67.9 °F /  19.9 °C 29.65in /  1003.9hPa SSW 4.0mph /  6.4km/h 9.0mph /  14.5km/h 74% 0.00in /  0mm
03:05 76.6 °F /  24.8 °C 68.1 °F /  20.1 °C 29.65in /  1003.9hPa SSW 3.0mph /  4.8km/h 8.0mph /  12.9km/h 75% 0.00in /  0mm
03:10 76.4 °F /  24.7 °C 67.9 °F /  19.9 °C 29.65in /  1003.9hPa SSW 1.0mph /  1.6km/h 6.0mph /  9.7km/h 75% 0.00in /  0mm
03:15 76.4 °F /  24.7 °C 67.9 °F /  19.9 °C 29.65in /  1003.9hPa SSW 3.0mph /  4.8km/h 6.0mph /  9.7km/h 75% 0.00in /  0mm
03:20 76.3 °F /  24.6 °C 67.8 °F /  19.9 °C 29.64in /  1003.6hPa SSW 2.0mph /  3.2km/h 6.0mph /  9.7km/h 75% 0.00in /  0mm
03:25 76.1 °F /  24.5 °C 67.6 °F /  19.8 °C 29.65in /  1003.9hPa South 3.0mph /  4.8km/h 6.0mph /  9.7km/h 75% 0.00in /  0mm
03:30 76.0 °F /  24.4 °C 67.5 °F /  19.7 °C 29.65in /  1003.9hPa SE 4.0mph /  6.4km/h 7.0mph /  11.3km/h 75% 0.00in /  0mm
03:35 75.9 °F /  24.4 °C 67.8 °F /  19.9 °C 29.65in /  1003.9hPa South 3.0mph /  4.8km/h 7.0mph /  11.3km/h 76% 0.00in /  0mm
03:40 75.9 °F /  24.4 °C 67.4 °F /  19.7 °C 29.65in /  1003.9hPa SSW 4.0mph /  6.4km/h 7.0mph /  11.3km/h 75% 0.00in /  0mm
03:45 76.0 °F /  24.4 °C 67.5 °F /  19.7 °C 29.65in /  1003.9hPa SSW 3.0mph /  4.8km/h 8.0mph /  12.9km/h 75% 0.00in /  0mm
03:50 75.9 °F /  24.4 °C 67.4 °F /  19.7 °C 29.65in /  1003.9hPa SSW 3.0mph /  4.8km/h 8.0mph /  12.9km/h 75% 0.00in /  0mm
03:55 75.9 °F /  24.4 °C 67.8 °F /  19.9 °C 29.65in /  1003.9hPa South 3.0mph /  4.8km/h 7.0mph /  11.3km/h 76% 0.00in /  0mm
04:00 75.9 °F /  24.4 °C 67.4 °F /  19.7 °C 29.65in /  1003.9hPa SSW 3.0mph /  4.8km/h 8.0mph /  12.9km/h 75% 0.00in /  0mm
04:05 76.0 °F /  24.4 °C 67.9 °F /  19.9 °C 29.65in /  1003.9hPa SSW 4.0mph /  6.4km/h 8.0mph /  12.9km/h 76% 0.00in /  0mm
04:10 76.1 °F /  24.5 °C 68.0 °F /  20 °C 29.65in /  1003.9hPa Calm   8.0mph /  12.9km/h 76% 0.00in /  0mm
04:15 76.1 °F /  24.5 °C 68.0 °F /  20 °C 29.65in /  1003.9hPa South 3.0mph /  4.8km/h 9.0mph /  14.5km/h 76% 0.00in /  0mm
04:20 76.0 °F /  24.4 °C 67.9 °F /  19.9 °C 29.65in /  1003.9hPa South 4.0mph /  6.4km/h 9.0mph /  14.5km/h 76% 0.00in /  0mm
04:24 75.9 °F /  24.4 °C 67.8 °F /  19.9 °C 29.65in /  1003.9hPa SSW 1.0mph /  1.6km/h 9.0mph /  14.5km/h 76% 0.00in /  0mm
04:30 75.8 °F /  24.3 °C 67.7 °F /  19.8 °C 29.64in /  1003.6hPa SSW 5.0mph /  8km/h 8.0mph /  12.9km/h 76% 0.00in /  0mm
04:35 75.7 °F /  24.3 °C 67.6 °F /  19.8 °C 29.64in /  1003.6hPa SSW 4.0mph /  6.4km/h 10.0mph /  16.1km/h 76% 0.00in /  0mm
04:40 75.7 °F /  24.3 °C 67.6 °F /  19.8 °C 29.63in /  1003.3hPa SW 6.0mph /  9.7km/h 13.0mph /  20.9km/h 76% 0.00in /  0mm
04:45 75.7 °F /  24.3 °C 67.6 °F /  19.8 °C 29.63in /  1003.3hPa South 5.0mph /  8km/h 13.0mph /  20.9km/h 76% 0.00in /  0mm
04:50 75.7 °F /  24.3 °C 67.6 °F /  19.8 °C 29.64in /  1003.6hPa South 4.0mph /  6.4km/h 10.0mph /  16.1km/h 76% 0.00in /  0mm
04:55 75.8 °F /  24.3 °C 67.7 °F /  19.8 °C 29.64in /  1003.6hPa South 5.0mph /  8km/h 14.0mph /  22.5km/h 76% 0.00in /  0mm
05:00 75.8 °F /  24.3 °C 67.7 °F /  19.8 °C 29.64in /  1003.6hPa South 4.0mph /  6.4km/h 7.0mph /  11.3km/h 76% 0.00in /  0mm
05:05 75.8 °F /  24.3 °C 67.7 °F /  19.8 °C 29.64in /  1003.6hPa South 5.0mph /  8km/h 6.0mph /  9.7km/h 76% 0.00in /  0mm
05:10 75.8 °F /  24.3 °C 67.7 °F /  19.8 °C 29.64in /  1003.6hPa SW 3.0mph /  4.8km/h 13.0mph /  20.9km/h 76% 0.00in /  0mm
05:15 75.9 °F /  24.4 °C 67.8 °F /  19.9 °C 29.64in /  1003.6hPa South 5.0mph /  8km/h 13.0mph /  20.9km/h 76% 0.00in /  0mm
05:20 75.8 °F /  24.3 °C 67.7 °F /  19.8 °C 29.64in /  1003.6hPa SSW 4.0mph /  6.4km/h 10.0mph /  16.1km/h 76% 0.00in /  0mm
05:25 75.8 °F /  24.3 °C 67.7 °F /  19.8 °C 29.64in /  1003.6hPa SSW 4.0mph /  6.4km/h 10.0mph /  16.1km/h 76% 0.00in /  0mm
05:30 75.8 °F /  24.3 °C 67.7 °F /  19.8 °C 29.64in /  1003.6hPa SSW 4.0mph /  6.4km/h 10.0mph /  16.1km/h 76% 0.00in /  0mm
05:35 75.9 °F /  24.4 °C 67.8 °F /  19.9 °C 29.64in /  1003.6hPa SSW 4.0mph /  6.4km/h 10.0mph /  16.1km/h 76% 0.00in /  0mm
05:40 76.1 °F /  24.5 °C 67.6 °F /  19.8 °C 29.64in /  1003.6hPa SSW 4.0mph /  6.4km/h 10.0mph /  16.1km/h 75% 0.00in /  0mm
05:45 76.1 °F /  24.5 °C 67.6 °F /  19.8 °C 29.64in /  1003.6hPa SSW 4.0mph /  6.4km/h 9.0mph /  14.5km/h 75% 0.00in /  0mm
05:50 76.2 °F /  24.6 °C 67.7 °F /  19.8 °C 29.64in /  1003.6hPa SW 6.0mph /  9.7km/h 12.0mph /  19.3km/h 75% 0.00in /  0mm
05:55 76.1 °F /  24.5 °C 67.6 °F /  19.8 °C 29.64in /  1003.6hPa SSW 7.0mph /  11.3km/h 11.0mph /  17.7km/h 75% 0.00in /  0mm
06:00 76.1 °F /  24.5 °C 67.6 °F /  19.8 °C 29.64in /  1003.6hPa SSW 1.0mph /  1.6km/h 12.0mph /  19.3km/h 75% 0.00in /  0mm
06:05 76.1 °F /  24.5 °C 68.0 °F /  20 °C 29.64in /  1003.6hPa SW 6.0mph /  9.7km/h 11.0mph /  17.7km/h 76% 0.00in /  0mm
06:10 76.2 °F /  24.6 °C 68.1 °F /  20.1 °C 29.64in /  1003.6hPa South 3.0mph /  4.8km/h 8.0mph /  12.9km/h 76% 0.00in /  0mm
06:15 76.2 °F /  24.6 °C 67.7 °F /  19.8 °C 29.64in /  1003.6hPa South 4.0mph /  6.4km/h 9.0mph /  14.5km/h 75% 0.00in /  0mm
06:20 76.2 °F /  24.6 °C 67.7 °F /  19.8 °C 29.64in /  1003.6hPa South 4.0mph /  6.4km/h 9.0mph /  14.5km/h 75% 0.00in /  0mm
06:25 76.2 °F /  24.6 °C 67.7 °F /  19.8 °C 29.64in /  1003.6hPa South 4.0mph /  6.4km/h 9.0mph /  14.5km/h 75% 0.00in /  0mm
06:30 76.4 °F /  24.7 °C 67.9 °F /  19.9 °C 29.64in /  1003.6hPa South 4.0mph /  6.4km/h 9.0mph /  14.5km/h 75% 0.00in /  0mm
06:35 76.6 °F /  24.8 °C 68.1 °F /  20.1 °C 29.64in /  1003.6hPa South 4.0mph /  6.4km/h 13.0mph /  20.9km/h 75% 0.00in /  0mm
06:40 77.0 °F /  25 °C 68.1 °F /  20.1 °C 29.64in /  1003.6hPa SSE 7.0mph /  11.3km/h 11.0mph /  17.7km/h 74% 0.00in /  0mm
06:44 77.3 °F /  25.2 °C 68.4 °F /  20.2 °C 29.64in /  1003.6hPa South 5.0mph /  8km/h 11.0mph /  17.7km/h 74% 0.00in /  0mm
06:50 77.4 °F /  25.2 °C 68.5 °F /  20.3 °C 29.63in /  1003.3hPa South 5.0mph /  8km/h 11.0mph /  17.7km/h 74% 0.00in /  0mm
06:55 77.6 °F /  25.3 °C 68.7 °F /  20.4 °C 29.63in /  1003.3hPa South 4.0mph /  6.4km/h 10.0mph /  16.1km/h 74% 0.00in /  0mm
07:00 77.9 °F /  25.5 °C 68.5 °F /  20.3 °C 29.63in /  1003.3hPa South 2.0mph /  3.2km/h 8.0mph /  12.9km/h 73% 0.00in /  0mm
07:05 78.3 °F /  25.7 °C 68.9 °F /  20.5 °C 29.64in /  1003.6hPa South 7.0mph /  11.3km/h 12.0mph /  19.3km/h 73% 0.00in /  0mm
07:10 78.3 °F /  25.7 °C 68.9 °F /  20.5 °C 29.64in /  1003.6hPa SSE 6.0mph /  9.7km/h 11.0mph /  17.7km/h 73% 0.00in /  0mm
07:14 78.1 °F /  25.6 °C 68.7 °F /  20.4 °C 29.64in /  1003.6hPa South 5.0mph /  8km/h 11.0mph /  17.7km/h 73% 0.00in /  0mm
07:20 78.0 °F /  25.6 °C 68.6 °F /  20.3 °C 29.63in /  1003.3hPa SSW 5.0mph /  8km/h 11.0mph /  17.7km/h 73% 0.00in /  0mm
07:25 77.8 °F /  25.4 °C 68.8 °F /  20.4 °C 29.63in /  1003.3hPa SSW 4.0mph /  6.4km/h 10.0mph /  16.1km/h 74% 0.00in /  0mm
07:30 77.9 °F /  25.5 °C 68.9 °F /  20.5 °C 29.63in /  1003.3hPa SSE 6.0mph /  9.7km/h 13.0mph /  20.9km/h 74% 0.00in /  0mm
07:35 78.3 °F /  25.7 °C 68.9 °F /  20.5 °C 29.63in /  1003.3hPa SSW 3.0mph /  4.8km/h 9.0mph /  14.5km/h 73% 0.00in /  0mm
07:40 78.9 °F /  26.1 °C 69.1 °F /  20.6 °C 29.63in /  1003.3hPa South 5.0mph /  8km/h 11.0mph /  17.7km/h 72% 0.00in /  0mm
07:44 79.3 °F /  26.3 °C 69.1 °F /  20.6 °C 29.63in /  1003.3hPa SSW 5.0mph /  8km/h 13.0mph /  20.9km/h 71% 0.00in /  0mm
07:49 80.0 °F /  26.7 °C 69.3 °F /  20.7 °C 29.63in /  1003.3hPa SSW 6.0mph /  9.7km/h 16.0mph /  25.7km/h 70% 0.00in /  0mm
07:55 80.5 °F /  26.9 °C 69.8 °F /  21 °C 29.62in /  1002.9hPa SSW 7.0mph /  11.3km/h 17.0mph /  27.4km/h 70% 0.00in /  0mm
08:00 81.0 °F /  27.2 °C 69.9 °F /  21.1 °C 29.62in /  1002.9hPa SSW 6.0mph /  9.7km/h 19.0mph /  30.6km/h 69% 0.00in /  0mm
08:04 81.1 °F /  27.3 °C 70.0 °F /  21.1 °C 29.62in /  1002.9hPa SE 10.0mph /  16.1km/h 13.0mph /  20.9km/h 69% 0.00in /  0mm
08:10 81.8 °F /  27.7 °C 70.2 °F /  21.2 °C 29.62in /  1002.9hPa SW 5.0mph /  8km/h 16.0mph /  25.7km/h 68% 0.00in /  0mm
08:15 81.8 °F /  27.7 °C 70.2 °F /  21.2 °C 29.62in /  1002.9hPa SSW 7.0mph /  11.3km/h 16.0mph /  25.7km/h 68% 0.00in /  0mm
08:20 81.6 °F /  27.6 °C 70.0 °F /  21.1 °C 29.62in /  1002.9hPa South 10.0mph /  16.1km/h 14.0mph /  22.5km/h 68% 0.00in /  0mm
08:25 81.5 °F /  27.5 °C 70.3 °F /  21.3 °C 29.63in /  1003.3hPa South 6.0mph /  9.7km/h 14.0mph /  22.5km/h 69% 0.00in /  0mm
08:30 81.5 °F /  27.5 °C 69.9 °F /  21.1 °C 29.63in /  1003.3hPa SSW 6.0mph /  9.7km/h 14.0mph /  22.5km/h 68% 0.00in /  0mm
08:35 81.4 °F /  27.4 °C 70.2 °F /  21.2 °C 29.63in /  1003.3hPa SSW 6.0mph /  9.7km/h 15.0mph /  24.1km/h 69% 0.00in /  0mm
08:40 81.8 °F /  27.7 °C 70.2 °F /  21.2 °C 29.63in /  1003.3hPa South 12.0mph /  19.3km/h 18.0mph /  29km/h 68% 0.00in /  0mm
08:44 82.3 °F /  27.9 °C 70.7 °F /  21.5 °C 29.63in /  1003.3hPa SSW 7.0mph /  11.3km/h 18.0mph /  29km/h 68% 0.00in /  0mm
08:50 82.2 °F /  27.9 °C 70.1 °F /  21.2 °C 29.64in /  1003.6hPa SSW 6.0mph /  9.7km/h 13.0mph /  20.9km/h 67% 0.00in /  0mm
08:55 81.5 °F /  27.5 °C 69.9 °F /  21.1 °C 29.64in /  1003.6hPa SSW 7.0mph /  11.3km/h 13.0mph /  20.9km/h 68% 0.00in /  0mm
09:00 81.2 °F /  27.3 °C 69.6 °F /  20.9 °C 29.63in /  1003.3hPa SSW 8.0mph /  12.9km/h 17.0mph /  27.4km/h 68% 0.00in /  0mm
09:05 81.0 °F /  27.2 °C 69.4 °F /  20.8 °C 29.63in /  1003.3hPa SSW 8.0mph /  12.9km/h 17.0mph /  27.4km/h 68% 0.00in /  0mm
09:10 81.0 °F /  27.2 °C 69.4 °F /  20.8 °C 29.63in /  1003.3hPa SSW 8.0mph /  12.9km/h 14.0mph /  22.5km/h 68% 0.00in /  0mm
09:19 81.8 °F /  27.7 °C 70.2 °F /  21.2 °C 29.63in /  1003.3hPa South 4.0mph /  6.4km/h 14.0mph /  22.5km/h 68% 0.00in /  0mm
09:24 81.6 °F /  27.6 °C 69.6 °F /  20.9 °C 29.62in /  1002.9hPa SSW 8.0mph /  12.9km/h 17.0mph /  27.4km/h 67% 0.00in /  0mm
09:30 81.1 °F /  27.3 °C 70.0 °F /  21.1 °C 29.62in /  1002.9hPa SSE 4.0mph /  6.4km/h 16.0mph /  25.7km/h 69% 0.00in /  0mm
09:34 80.8 °F /  27.1 °C 69.7 °F /  20.9 °C 29.62in /  1002.9hPa SW 3.0mph /  4.8km/h 16.0mph /  25.7km/h 69% 0.00in /  0mm
09:40 80.9 °F /  27.2 °C 69.8 °F /  21 °C 29.62in /  1002.9hPa SSW 5.0mph /  8km/h 13.0mph /  20.9km/h 69% 0.00in /  0mm
09:45 81.2 °F /  27.3 °C 69.6 °F /  20.9 °C 29.62in /  1002.9hPa SSW 6.0mph /  9.7km/h 15.0mph /  24.1km/h 68% 0.00in /  0mm
09:50 81.3 °F /  27.4 °C 69.7 °F /  20.9 °C 29.62in /  1002.9hPa SSW 7.0mph /  11.3km/h 18.0mph /  29km/h 68% 0.00in /  0mm
09:55 81.4 °F /  27.4 °C 69.8 °F /  21 °C 29.62in /  1002.9hPa SSW 6.0mph /  9.7km/h 18.0mph /  29km/h 68% 0.00in /  0mm
10:00 81.5 °F /  27.5 °C 69.5 °F /  20.8 °C 29.62in /  1002.9hPa SSW 6.0mph /  9.7km/h 13.0mph /  20.9km/h 67% 0.00in /  0mm
10:05 81.6 °F /  27.6 °C 70.0 °F /  21.1 °C 29.62in /  1002.9hPa SW 4.0mph /  6.4km/h 12.0mph /  19.3km/h 68% 0.00in /  0mm
10:09 81.6 °F /  27.6 °C 69.6 °F /  20.9 °C 29.62in /  1002.9hPa SSW 6.0mph /  9.7km/h 18.0mph /  29km/h 67% 0.00in /  0mm
10:14 82.3 °F /  27.9 °C 70.2 °F /  21.2 °C 29.62in /  1002.9hPa SW 7.0mph /  11.3km/h 18.0mph /  29km/h 67% 0.00in /  0mm
10:19 83.3 °F /  28.5 °C 70.3 °F /  21.3 °C 29.61in /  1002.6hPa SW 6.0mph /  9.7km/h 18.0mph /  29km/h 65% 0.00in /  0mm
10:25 83.9 °F /  28.8 °C 70.4 °F /  21.3 °C 29.61in /  1002.6hPa SSW 14.0mph /  22.5km/h 20.0mph /  32.2km/h 64% 0.00in /  0mm
10:29 84.3 °F /  29.1 °C 70.8 °F /  21.6 °C 29.62in /  1002.9hPa South 7.0mph /  11.3km/h 17.0mph /  27.4km/h 64% 0.00in /  0mm
10:35 84.9 °F /  29.4 °C 70.4 °F /  21.3 °C 29.62in /  1002.9hPa SW 9.0mph /  14.5km/h 17.0mph /  27.4km/h 62% 0.00in /  0mm
10:39 84.6 °F /  29.2 °C 71.1 °F /  21.7 °C 29.62in /  1002.9hPa SW 8.0mph /  12.9km/h 18.0mph /  29km/h 64% 0.00in /  0mm
10:44 85.1 °F /  29.5 °C 70.1 °F /  21.2 °C 29.62in /  1002.9hPa SW 7.0mph /  11.3km/h 18.0mph /  29km/h 61% 0.00in /  0mm
10:49 85.1 °F /  29.5 °C 70.1 °F /  21.2 °C 29.61in /  1002.6hPa SW 7.0mph /  11.3km/h 18.0mph /  29km/h 61% 0.00in /  0mm
10:54 84.7 °F /  29.3 °C 70.2 °F /  21.2 °C 29.61in /  1002.6hPa SW 10.0mph /  16.1km/h 14.0mph /  22.5km/h 62% 0.00in /  0mm
11:00 84.3 °F /  29.1 °C 69.9 °F /  21.1 °C 29.61in /  1002.6hPa WSW 7.0mph /  11.3km/h 17.0mph /  27.4km/h 62% 0.00in /  0mm
11:05 83.9 °F /  28.8 °C 69.5 °F /  20.8 °C 29.61in /  1002.6hPa SW 14.0mph /  22.5km/h 17.0mph /  27.4km/h 62% 0.00in /  0mm
11:10 83.9 °F /  28.8 °C 70.0 °F /  21.1 °C 29.61in /  1002.6hPa WSW 6.0mph /  9.7km/h 15.0mph /  24.1km/h 63% 0.00in /  0mm
11:15 84.1 °F /  28.9 °C 70.1 °F /  21.2 °C 29.61in /  1002.6hPa SW 8.0mph /  12.9km/h 15.0mph /  24.1km/h 63% 0.00in /  0mm
11:19 84.3 °F /  29.1 °C 69.9 °F /  21.1 °C 29.60in /  1002.3hPa SW 8.0mph /  12.9km/h 15.0mph /  24.1km/h 62% 0.00in /  0mm
11:24 84.7 °F /  29.3 °C 70.7 °F /  21.5 °C 29.60in /  1002.3hPa SW 5.0mph /  8km/h 16.0mph /  25.7km/h 63% 0.00in /  0mm
11:29 85.7 °F /  29.8 °C 70.2 °F /  21.2 °C 29.60in /  1002.3hPa WSW 10.0mph /  16.1km/h 15.0mph /  24.1km/h 60% 0.00in /  0mm
11:34 86.5 °F /  30.3 °C 71.0 °F /  21.7 °C 29.60in /  1002.3hPa SSW 7.0mph /  11.3km/h 14.0mph /  22.5km/h 60% 0.00in /  0mm
11:39 87.1 °F /  30.6 °C 71.5 °F /  21.9 °C 29.60in /  1002.3hPa SW 7.0mph /  11.3km/h 14.0mph /  22.5km/h 60% 0.00in /  0mm
11:45 87.0 °F /  30.6 °C 70.9 °F /  21.6 °C 29.60in /  1002.3hPa SW 7.0mph /  11.3km/h 18.0mph /  29km/h 59% 0.00in /  0mm
11:49 87.2 °F /  30.7 °C 70.6 °F /  21.4 °C 29.60in /  1002.3hPa WSW 10.0mph /  16.1km/h 13.0mph /  20.9km/h 58% 0.00in /  0mm
11:55 86.3 °F /  30.2 °C 70.3 °F /  21.3 °C 29.60in /  1002.3hPa SW 8.0mph /  12.9km/h 18.0mph /  29km/h 59% 0.00in /  0mm
12:00 85.8 °F /  29.9 °C 70.8 °F /  21.6 °C 29.60in /  1002.3hPa South 10.0mph /  16.1km/h 13.0mph /  20.9km/h 61% 0.00in /  0mm
12:04 86.4 °F /  30.2 °C 70.9 °F /  21.6 °C 29.60in /  1002.3hPa West 5.0mph /  8km/h 14.0mph /  22.5km/h 60% 0.00in /  0mm
12:09 86.3 °F /  30.2 °C 70.3 °F /  21.3 °C 29.60in /  1002.3hPa SW 8.0mph /  12.9km/h 19.0mph /  30.6km/h 59% 0.00in /  0mm
12:14 86.5 °F /  30.3 °C 70.5 °F /  21.4 °C 29.60in /  1002.3hPa WSW 9.0mph /  14.5km/h 19.0mph /  30.6km/h 59% 0.00in /  0mm
12:19 87.4 °F /  30.8 °C 71.3 °F /  21.8 °C 29.60in /  1002.3hPa WSW 9.0mph /  14.5km/h 19.0mph /  30.6km/h 59% 0.00in /  0mm
12:25 87.1 °F /  30.6 °C 71.0 °F /  21.7 °C 29.60in /  1002.3hPa WSW 8.0mph /  12.9km/h 18.0mph /  29km/h 59% 0.00in /  0mm
12:30 85.6 °F /  29.8 °C 69.6 °F /  20.9 °C 29.60in /  1002.3hPa WSW 9.0mph /  14.5km/h 19.0mph /  30.6km/h 59% 0.00in /  0mm
12:34 86.1 °F /  30.1 °C 70.1 °F /  21.2 °C 29.60in /  1002.3hPa WSW 7.0mph /  11.3km/h 22.0mph /  35.4km/h 59% 0.00in /  0mm
12:40 86.6 °F /  30.3 °C 70.1 °F /  21.2 °C 29.60in /  1002.3hPa WSW 15.0mph /  24.1km/h 21.0mph /  33.8km/h 58% 0.00in /  0mm
12:44 85.5 °F /  29.7 °C 69.0 °F /  20.6 °C 29.60in /  1002.3hPa SW 12.0mph /  19.3km/h 18.0mph /  29km/h 58% 0.00in /  0mm
12:50 85.6 °F /  29.8 °C 69.1 °F /  20.6 °C 29.60in /  1002.3hPa SSW 2.0mph /  3.2km/h 17.0mph /  27.4km/h 58% 0.00in /  0mm
12:54 84.5 °F /  29.2 °C 69.1 °F /  20.6 °C 29.60in /  1002.3hPa WNW 8.0mph /  12.9km/h 15.0mph /  24.1km/h 60% 0.00in /  0mm
12:59 83.8 °F /  28.8 °C 68.9 °F /  20.5 °C 29.60in /  1002.3hPa South 5.0mph /  8km/h 13.0mph /  20.9km/h 61% 0.00in /  0mm
13:04 83.9 °F /  28.8 °C 69.0 °F /  20.6 °C 29.60in /  1002.3hPa WSW 7.0mph /  11.3km/h 13.0mph /  20.9km/h 61% 0.00in /  0mm
13:09 84.5 °F /  29.2 °C 69.1 °F /  20.6 °C 29.60in /  1002.3hPa WSW 7.0mph /  11.3km/h 13.0mph /  20.9km/h 60% 0.00in /  0mm
13:15 84.7 °F /  29.3 °C 68.3 °F /  20.2 °C 29.60in /  1002.3hPa WSW 7.0mph /  11.3km/h 13.0mph /  20.9km/h 58% 0.00in /  0mm
13:20 84.3 °F /  29.1 °C 67.9 °F /  19.9 °C 29.60in /  1002.3hPa WSW 7.0mph /  11.3km/h 13.0mph /  20.9km/h 58% 0.00in /  0mm
13:25 83.7 °F /  28.7 °C 67.8 °F /  19.9 °C 29.59in /  1001.9hPa WSW 8.0mph /  12.9km/h 14.0mph /  22.5km/h 59% 0.00in /  0mm
13:30 83.4 °F /  28.6 °C 68.1 °F /  20.1 °C 29.59in /  1001.9hPa WSW 6.0mph /  9.7km/h 14.0mph /  22.5km/h 60% 0.00in /  0mm
13:34 83.4 °F /  28.6 °C 67.6 °F /  19.8 °C 29.59in /  1001.9hPa WSW 5.0mph /  8km/h 14.0mph /  22.5km/h 59% 0.00in /  0mm
13:39 83.6 °F /  28.7 °C 67.8 °F /  19.9 °C 29.59in /  1001.9hPa SW 7.0mph /  11.3km/h 12.0mph /  19.3km/h 59% 0.00in /  0mm
13:44 83.6 °F /  28.7 °C 67.8 °F /  19.9 °C 29.60in /  1002.3hPa West 5.0mph /  8km/h 14.0mph /  22.5km/h 59% 0.00in /  0mm
13:49 83.0 °F /  28.3 °C 67.2 °F /  19.6 °C 29.59in /  1001.9hPa NW 2.0mph /  3.2km/h 13.0mph /  20.9km/h 59% 0.00in /  0mm
13:54 82.7 °F /  28.2 °C 67.4 °F /  19.7 °C 29.59in /  1001.9hPa WSW 6.0mph /  9.7km/h 9.0mph /  14.5km/h 60% 0.00in /  0mm
13:59 82.4 °F /  28 °C 68.1 °F /  20.1 °C 29.59in /  1001.9hPa WSW 7.0mph /  11.3km/h 9.0mph /  14.5km/h 62% 0.00in /  0mm
14:04 82.8 °F /  28.2 °C 68.4 °F /  20.2 °C 29.59in /  1001.9hPa SW 5.0mph /  8km/h 11.0mph /  17.7km/h 62% 0.00in /  0mm
14:09 83.4 °F /  28.6 °C 67.6 °F /  19.8 °C 29.58in /  1001.6hPa SSW 5.0mph /  8km/h 12.0mph /  19.3km/h 59% 0.00in /  0mm
14:14 82.4 °F /  28 °C 68.1 °F /  20.1 °C 29.59in /  1001.9hPa SW 5.0mph /  8km/h 12.0mph /  19.3km/h 62% 0.00in /  0mm
14:20 80.9 °F /  27.2 °C 68.5 °F /  20.3 °C 29.60in /  1002.3hPa SW 9.0mph /  14.5km/h 24.0mph /  38.6km/h 66% 0.00in /  0mm
14:25 76.5 °F /  24.7 °C 68.4 °F /  20.2 °C 29.60in /  1002.3hPa West 8.0mph /  12.9km/h 17.0mph /  27.4km/h 76% 0.03in /  0.76mm
14:29 74.2 °F /  23.4 °C 68.0 °F /  20 °C 29.59in /  1001.9hPa WSW 8.0mph /  12.9km/h 17.0mph /  27.4km/h 81% 0.03in /  0.76mm
14:34 74.2 °F /  23.4 °C 69.1 °F /  20.6 °C 29.58in /  1001.6hPa WSW 5.0mph /  8km/h 12.0mph /  19.3km/h 84% 0.04in /  1.02mm
14:39 74.8 °F /  23.8 °C 69.6 °F /  20.9 °C 29.58in /  1001.6hPa WSW 4.0mph /  6.4km/h 9.0mph /  14.5km/h 84% 0.04in /  1.02mm
14:44 75.4 °F /  24.1 °C 70.6 °F /  21.4 °C 29.57in /  1001.2hPa SW 3.0mph /  4.8km/h 5.0mph /  8km/h 85% 0.04in /  1.02mm
14:49 76.3 °F /  24.6 °C 70.8 °F /  21.6 °C 29.57in /  1001.2hPa South 2.0mph /  3.2km/h 4.0mph /  6.4km/h 83% 0.04in /  1.02mm
14:54 77.3 °F /  25.2 °C 71.4 °F /  21.9 °C 29.57in /  1001.2hPa South 1.0mph /  1.6km/h 5.0mph /  8km/h 82% 0.04in /  1.02mm
14:59 77.7 °F /  25.4 °C 71.4 °F /  21.9 °C 29.57in /  1001.2hPa South 2.0mph /  3.2km/h 6.0mph /  9.7km/h 81% 0.04in /  1.02mm
15:04 77.5 °F /  25.3 °C 70.5 °F /  21.4 °C 29.58in /  1001.6hPa South 4.0mph /  6.4km/h 6.0mph /  9.7km/h 79% 0.04in /  1.02mm
15:09 77.2 °F /  25.1 °C 70.2 °F /  21.2 °C 29.58in /  1001.6hPa South 4.0mph /  6.4km/h 8.0mph /  12.9km/h 79% 0.04in /  1.02mm
15:14 76.7 °F /  24.8 °C 69.7 °F /  20.9 °C 29.60in /  1002.3hPa South 6.0mph /  9.7km/h 11.0mph /  17.7km/h 79% 0.04in /  1.02mm
15:19 76.1 °F /  24.5 °C 69.5 °F /  20.8 °C 29.59in /  1001.9hPa SSE 4.0mph /  6.4km/h 12.0mph /  19.3km/h 80% 0.04in /  1.02mm
15:25 75.7 °F /  24.3 °C 69.8 °F /  21 °C 29.59in /  1001.9hPa SSW 6.0mph /  9.7km/h 9.0mph /  14.5km/h 82% 0.01in /  0.25mm
15:29 75.5 °F /  24.2 °C 70.3 °F /  21.3 °C 29.58in /  1001.6hPa SSW 4.0mph /  6.4km/h 12.0mph /  19.3km/h 84% 0.01in /  0.25mm
15:34 75.4 °F /  24.1 °C 70.2 °F /  21.2 °C 29.58in /  1001.6hPa SSW 4.0mph /  6.4km/h 12.0mph /  19.3km/h 84% 0.00in /  0mm
15:39 75.2 °F /  24 °C 70.0 °F /  21.1 °C 29.58in /  1001.6hPa SW 3.0mph /  4.8km/h 6.0mph /  9.7km/h 84% 0.00in /  0mm
15:44 75.2 °F /  24 °C 70.0 °F /  21.1 °C 29.58in /  1001.6hPa SSW 2.0mph /  3.2km/h 7.0mph /  11.3km/h 84% 0.00in /  0mm
15:49 75.3 °F /  24.1 °C 70.5 °F /  21.4 °C 29.59in /  1001.9hPa SSW 4.0mph /  6.4km/h 4.0mph /  6.4km/h 85% 0.01in /  0.25mm
15:54 75.0 °F /  23.9 °C 70.2 °F /  21.2 °C 29.61in /  1002.6hPa WSW 4.0mph /  6.4km/h 8.0mph /  12.9km/h 85% 0.03in /  0.76mm
15:59 74.6 °F /  23.7 °C 69.8 °F /  21 °C 29.61in /  1002.6hPa WSW 5.0mph /  8km/h 13.0mph /  20.9km/h 85% 0.06in /  1.52mm
16:04 73.9 °F /  23.3 °C 69.4 °F /  20.8 °C 29.59in /  1001.9hPa SSW 2.0mph /  3.2km/h 7.0mph /  11.3km/h 86% 0.20in /  5.08mm
16:09 73.4 °F /  23 °C 69.3 °F /  20.7 °C 29.59in /  1001.9hPa WSW 4.0mph /  6.4km/h 6.0mph /  9.7km/h 87% 0.22in /  5.59mm
16:14 73.1 °F /  22.8 °C 69.0 °F /  20.6 °C 29.60in /  1002.3hPa SSW 4.0mph /  6.4km/h 6.0mph /  9.7km/h 87% 0.22in /  5.59mm
16:19 72.9 °F /  22.7 °C 69.1 °F /  20.6 °C 29.60in /  1002.3hPa SW 2.0mph /  3.2km/h 7.0mph /  11.3km/h 88% 0.23in /  5.84mm
16:24 72.8 °F /  22.7 °C 69.0 °F /  20.6 °C 29.59in /  1001.9hPa SW 2.0mph /  3.2km/h 5.0mph /  8km/h 88% 0.24in /  6.1mm
16:29 72.7 °F /  22.6 °C 68.9 °F /  20.5 °C 29.60in /  1002.3hPa SW 3.0mph /  4.8km/h 7.0mph /  11.3km/h 88% 0.25in /  6.35mm
16:34 72.6 °F /  22.6 °C 68.8 °F /  20.4 °C 29.60in /  1002.3hPa SW 3.0mph /  4.8km/h 9.0mph /  14.5km/h 88% 0.26in /  6.6mm
16:39 72.4 °F /  22.4 °C 69.0 °F /  20.6 °C 29.60in /  1002.3hPa SW 3.0mph /  4.8km/h 9.0mph /  14.5km/h 89% 0.26in /  6.6mm
16:45 72.2 °F /  22.3 °C 68.8 °F /  20.4 °C 29.59in /  1001.9hPa SW 2.0mph /  3.2km/h 6.0mph /  9.7km/h 89% 0.27in /  6.86mm
16:49 72.2 °F /  22.3 °C 68.8 °F /  20.4 °C 29.59in /  1001.9hPa South 2.0mph /  3.2km/h 5.0mph /  8km/h 89% 0.26in /  6.6mm
16:54 72.5 °F /  22.5 °C 69.1 °F /  20.6 °C 29.60in /  1002.3hPa SW 5.0mph /  8km/h 8.0mph /  12.9km/h 89% 0.24in /  6.1mm
16:59 72.5 °F /  22.5 °C 69.1 °F /  20.6 °C 29.60in /  1002.3hPa SSW 5.0mph /  8km/h 11.0mph /  17.7km/h 89% 0.21in /  5.33mm
17:04 72.4 °F /  22.4 °C 68.6 °F /  20.3 °C 29.60in /  1002.3hPa SSW 5.0mph /  8km/h 11.0mph /  17.7km/h 88% 0.07in /  1.78mm
17:09 72.3 °F /  22.4 °C 68.2 °F /  20.1 °C 29.60in /  1002.3hPa SSW 4.0mph /  6.4km/h 10.0mph /  16.1km/h 87% 0.06in /  1.52mm
17:14 72.2 °F /  22.3 °C 68.1 °F /  20.1 °C 29.60in /  1002.3hPa SSW 5.0mph /  8km/h 10.0mph /  16.1km/h 87% 0.06in /  1.52mm
17:19 72.1 °F /  22.3 °C 67.7 °F /  19.8 °C 29.60in /  1002.3hPa SSW 5.0mph /  8km/h 10.0mph /  16.1km/h 86% 0.05in /  1.27mm
17:24 72.1 °F /  22.3 °C 67.7 °F /  19.8 °C 29.59in /  1001.9hPa SSE 4.0mph /  6.4km/h 8.0mph /  12.9km/h 86% 0.05in /  1.27mm
17:29 72.1 °F /  22.3 °C 67.7 °F /  19.8 °C 29.59in /  1001.9hPa SSW 4.0mph /  6.4km/h 10.0mph /  16.1km/h 86% 0.04in /  1.02mm
17:34 72.1 °F /  22.3 °C 67.7 °F /  19.8 °C 29.58in /  1001.6hPa South 2.0mph /  3.2km/h 10.0mph /  16.1km/h 86% 0.04in /  1.02mm
17:39 72.2 °F /  22.3 °C 67.8 °F /  19.9 °C 29.58in /  1001.6hPa SSW 3.0mph /  4.8km/h 9.0mph /  14.5km/h 86% 0.04in /  1.02mm
17:44 72.3 °F /  22.4 °C 68.2 °F /  20.1 °C 29.58in /  1001.6hPa SSW 6.0mph /  9.7km/h 7.0mph /  11.3km/h 87% 0.03in /  0.76mm
17:49 72.4 °F /  22.4 °C 68.3 °F /  20.2 °C 29.59in /  1001.9hPa SW 4.0mph /  6.4km/h 7.0mph /  11.3km/h 87% 0.03in /  0.76mm
17:54 72.6 °F /  22.6 °C 68.2 °F /  20.1 °C 29.59in /  1001.9hPa SW 4.0mph /  6.4km/h 9.0mph /  14.5km/h 86% 0.03in /  0.76mm
17:59 72.9 °F /  22.7 °C 68.5 °F /  20.3 °C 29.58in /  1001.6hPa SSW 5.0mph /  8km/h 12.0mph /  19.3km/h 86% 0.03in /  0.76mm
18:04 73.4 °F /  23 °C 69.3 °F /  20.7 °C 29.58in /  1001.6hPa SSW 5.0mph /  8km/h 12.0mph /  19.3km/h 87% 0.03in /  0.76mm
18:09 74.4 °F /  23.6 °C 70.6 °F /  21.4 °C 29.59in /  1001.9hPa SSW 4.0mph /  6.4km/h 10.0mph /  16.1km/h 88% 0.02in /  0.51mm
18:15 74.3 °F /  23.5 °C 69.5 °F /  20.8 °C 29.59in /  1001.9hPa SSW 5.0mph /  8km/h 10.0mph /  16.1km/h 85% 0.02in /  0.51mm
18:20 74.4 °F /  23.6 °C 69.6 °F /  20.9 °C 29.59in /  1001.9hPa South 6.0mph /  9.7km/h 10.0mph /  16.1km/h 85% 0.02in /  0.51mm
18:25 74.6 °F /  23.7 °C 69.4 °F /  20.8 °C 29.59in /  1001.9hPa SSW 4.0mph /  6.4km/h 11.0mph /  17.7km/h 84% 0.01in /  0.25mm
18:29 74.6 °F /  23.7 °C 69.1 °F /  20.6 °C 29.59in /  1001.9hPa SSE 4.0mph /  6.4km/h 9.0mph /  14.5km/h 83% 0.01in /  0.25mm
18:34 74.7 °F /  23.7 °C 69.2 °F /  20.7 °C 29.59in /  1001.9hPa South 4.0mph /  6.4km/h 13.0mph /  20.9km/h 83% 0.00in /  0mm
18:39 74.8 °F /  23.8 °C 69.3 °F /  20.7 °C 29.59in /  1001.9hPa South 3.0mph /  4.8km/h 11.0mph /  17.7km/h 83% 0.00in /  0mm
18:44 74.8 °F /  23.8 °C 69.3 °F /  20.7 °C 29.58in /  1001.6hPa SSW 7.0mph /  11.3km/h 10.0mph /  16.1km/h 83% 0.00in /  0mm
18:49 74.9 °F /  23.8 °C 69.4 °F /  20.8 °C 29.58in /  1001.6hPa SSW 2.0mph /  3.2km/h 10.0mph /  16.1km/h 83% 0.00in /  0mm
18:54 75.0 °F /  23.9 °C 69.5 °F /  20.8 °C 29.58in /  1001.6hPa SSE 3.0mph /  4.8km/h 11.0mph /  17.7km/h 83% 0.00in /  0mm
18:59 75.3 °F /  24.1 °C 69.4 °F /  20.8 °C 29.58in /  1001.6hPa South 4.0mph /  6.4km/h 11.0mph /  17.7km/h 82% 0.00in /  0mm
19:04 75.7 °F /  24.3 °C 69.8 °F /  21 °C 29.58in /  1001.6hPa South 4.0mph /  6.4km/h 10.0mph /  16.1km/h 82% 0.00in /  0mm
19:09 76.1 °F /  24.5 °C 69.8 °F /  21 °C 29.58in /  1001.6hPa South 4.0mph /  6.4km/h 9.0mph /  14.5km/h 81% 0.00in /  0mm
19:15 76.0 °F /  24.4 °C 69.4 °F /  20.8 °C 29.58in /  1001.6hPa South 5.0mph /  8km/h 13.0mph /  20.9km/h 80% 0.00in /  0mm
19:19 75.8 °F /  24.3 °C 68.8 °F /  20.4 °C 29.58in /  1001.6hPa SSW 1.0mph /  1.6km/h 12.0mph /  19.3km/h 79% 0.00in /  0mm
19:24 75.6 °F /  24.2 °C 69.0 °F /  20.6 °C 29.59in /  1001.9hPa South 5.0mph /  8km/h 10.0mph /  16.1km/h 80% 0.00in /  0mm
19:29 75.4 °F /  24.1 °C 68.4 °F /  20.2 °C 29.59in /  1001.9hPa SSW 5.0mph /  8km/h 15.0mph /  24.1km/h 79% 0.00in /  0mm
19:34 75.2 °F /  24 °C 68.6 °F /  20.3 °C 29.59in /  1001.9hPa SSW 6.0mph /  9.7km/h 9.0mph /  14.5km/h 80% 0.00in /  0mm
19:39 75.0 °F /  23.9 °C 68.4 °F /  20.2 °C 29.58in /  1001.6hPa SSW 4.0mph /  6.4km/h 11.0mph /  17.7km/h 80% 0.00in /  0mm
19:44 74.7 °F /  23.7 °C 68.1 °F /  20.1 °C 29.59in /  1001.9hPa South 4.0mph /  6.4km/h 12.0mph /  19.3km/h 80% 0.00in /  0mm
19:49 74.4 °F /  23.6 °C 68.2 °F /  20.1 °C 29.59in /  1001.9hPa South 7.0mph /  11.3km/h 15.0mph /  24.1km/h 81% 0.00in /  0mm
19:54 74.2 °F /  23.4 °C 68.0 °F /  20 °C 29.59in /  1001.9hPa SSE 3.0mph /  4.8km/h 12.0mph /  19.3km/h 81% 0.00in /  0mm
19:59 73.8 °F /  23.2 °C 68.0 °F /  20 °C 29.60in /  1002.3hPa SSW 6.0mph /  9.7km/h 15.0mph /  24.1km/h 82% 0.01in /  0.25mm
20:04 73.4 °F /  23 °C 67.9 °F /  19.9 °C 29.60in /  1002.3hPa SSW 6.0mph /  9.7km/h 15.0mph /  24.1km/h 83% 0.01in /  0.25mm
20:09 73.1 °F /  22.8 °C 67.6 °F /  19.8 °C 29.60in /  1002.3hPa SSW 6.0mph /  9.7km/h 15.0mph /  24.1km/h 83% 0.01in /  0.25mm
20:14 72.8 °F /  22.7 °C 67.7 °F /  19.8 °C 29.60in /  1002.3hPa SW 5.0mph /  8km/h 11.0mph /  17.7km/h 84% 0.02in /  0.51mm
20:19 72.6 °F /  22.6 °C 67.8 °F /  19.9 °C 29.61in /  1002.6hPa South 7.0mph /  11.3km/h 13.0mph /  20.9km/h 85% 0.02in /  0.51mm
20:24 72.4 °F /  22.4 °C 68.0 °F /  20 °C 29.62in /  1002.9hPa SSW 7.0mph /  11.3km/h 11.0mph /  17.7km/h 86% 0.03in /  0.76mm
20:29 72.1 °F /  22.3 °C 67.7 °F /  19.8 °C 29.61in /  1002.6hPa SSW 6.0mph /  9.7km/h 11.0mph /  17.7km/h 86% 0.05in /  1.27mm
20:34 71.9 °F /  22.2 °C 67.8 °F /  19.9 °C 29.62in /  1002.9hPa SSW 6.0mph /  9.7km/h 13.0mph /  20.9km/h 87% 0.06in /  1.52mm
20:39 71.8 °F /  22.1 °C 68.1 °F /  20.1 °C 29.61in /  1002.6hPa SW 6.0mph /  9.7km/h 14.0mph /  22.5km/h 88% 0.08in /  2.03mm
20:44 71.6 °F /  22 °C 67.9 °F /  19.9 °C 29.61in /  1002.6hPa WSW 4.0mph /  6.4km/h 8.0mph /  12.9km/h 88% 0.10in /  2.54mm
20:49 71.5 °F /  21.9 °C 67.8 °F /  19.9 °C 29.61in /  1002.6hPa SSW 4.0mph /  6.4km/h 10.0mph /  16.1km/h 88% 0.12in /  3.05mm
20:54 71.4 °F /  21.9 °C 68.0 °F /  20 °C 29.61in /  1002.6hPa WSW 8.0mph /  12.9km/h 11.0mph /  17.7km/h 89% 0.15in /  3.81mm
20:59 71.4 °F /  21.9 °C 68.0 °F /  20 °C 29.61in /  1002.6hPa SSW 5.0mph /  8km/h 13.0mph /  20.9km/h 89% 0.16in /  4.06mm
21:04 71.3 °F /  21.8 °C 67.9 °F /  19.9 °C 29.61in /  1002.6hPa SSW 6.0mph /  9.7km/h 13.0mph /  20.9km/h 89% 0.18in /  4.57mm
21:09 71.2 °F /  21.8 °C 68.1 °F /  20.1 °C 29.62in /  1002.9hPa SW 3.0mph /  4.8km/h 10.0mph /  16.1km/h 90% 0.21in /  5.33mm
21:14 71.1 °F /  21.7 °C 68.0 °F /  20 °C 29.61in /  1002.6hPa SW 7.0mph /  11.3km/h 15.0mph /  24.1km/h 90% 0.21in /  5.33mm
21:19 71.0 °F /  21.7 °C 67.9 °F /  19.9 °C 29.61in /  1002.6hPa SW 4.0mph /  6.4km/h 9.0mph /  14.5km/h 90% 0.21in /  5.33mm
21:24 71.0 °F /  21.7 °C 67.9 °F /  19.9 °C 29.61in /  1002.6hPa SSW 5.0mph /  8km/h 11.0mph /  17.7km/h 90% 0.22in /  5.59mm
21:29 70.9 °F /  21.6 °C 67.8 °F /  19.9 °C 29.61in /  1002.6hPa SSW 5.0mph /  8km/h 13.0mph /  20.9km/h 90% 0.20in /  5.08mm
21:34 70.9 °F /  21.6 °C 67.8 °F /  19.9 °C 29.62in /  1002.9hPa SSW 6.0mph /  9.7km/h 13.0mph /  20.9km/h 90% 0.20in /  5.08mm
21:39 70.7 °F /  21.5 °C 67.6 °F /  19.8 °C 29.62in /  1002.9hPa SSW 6.0mph /  9.7km/h 12.0mph /  19.3km/h 90% 0.17in /  4.32mm
21:44 70.6 °F /  21.4 °C 67.5 °F /  19.7 °C 29.62in /  1002.9hPa SSW 5.0mph /  8km/h 10.0mph /  16.1km/h 90% 0.15in /  3.81mm
21:50 70.5 °F /  21.4 °C 67.4 °F /  19.7 °C 29.63in /  1003.3hPa SSW 5.0mph /  8km/h 11.0mph /  17.7km/h 90% 0.13in /  3.3mm
21:54 70.3 °F /  21.3 °C 67.2 °F /  19.6 °C 29.63in /  1003.3hPa SSW 4.0mph /  6.4km/h 13.0mph /  20.9km/h 90% 0.11in /  2.79mm
21:59 70.2 °F /  21.2 °C 67.1 °F /  19.5 °C 29.64in /  1003.6hPa West 3.0mph /  4.8km/h 8.0mph /  12.9km/h 90% 0.09in /  2.29mm
22:04 70.2 °F /  21.2 °C 67.1 °F /  19.5 °C 29.63in /  1003.3hPa South 3.0mph /  4.8km/h 12.0mph /  19.3km/h 90% 0.07in /  1.78mm
22:09 70.3 °F /  21.3 °C 67.2 °F /  19.6 °C 29.63in /  1003.3hPa South 1.0mph /  1.6km/h 8.0mph /  12.9km/h 90% 0.04in /  1.02mm
22:14 70.3 °F /  21.3 °C 67.2 °F /  19.6 °C 29.63in /  1003.3hPa SW 9.0mph /  14.5km/h 9.0mph /  14.5km/h 90% 0.03in /  0.76mm
22:19 70.3 °F /  21.3 °C 67.2 °F /  19.6 °C 29.64in /  1003.6hPa SSW 4.0mph /  6.4km/h 11.0mph /  17.7km/h 90% 0.02in /  0.51mm
22:24 70.1 °F /  21.2 °C 67.0 °F /  19.4 °C 29.64in /  1003.6hPa SSW 5.0mph /  8km/h 11.0mph /  17.7km/h 90% 0.01in /  0.25mm
22:29 70.1 °F /  21.2 °C 66.7 °F /  19.3 °C 29.63in /  1003.3hPa SSW 4.0mph /  6.4km/h 10.0mph /  16.1km/h 89% 0.01in /  0.25mm
22:34 70.0 °F /  21.1 °C 66.6 °F /  19.2 °C 29.64in /  1003.6hPa SW 3.0mph /  4.8km/h 9.0mph /  14.5km/h 89% 0.00in /  0mm
22:39 69.9 °F /  21.1 °C 66.5 °F /  19.2 °C 29.64in /  1003.6hPa SW 3.0mph /  4.8km/h 9.0mph /  14.5km/h 89% 0.00in /  0mm
22:44 70.0 °F /  21.1 °C 66.6 °F /  19.2 °C 29.64in /  1003.6hPa WSW 3.0mph /  4.8km/h 5.0mph /  8km/h 89% 0.00in /  0mm
22:49 69.9 °F /  21.1 °C 66.5 °F /  19.2 °C 29.64in /  1003.6hPa WSW 4.0mph /  6.4km/h 5.0mph /  8km/h 89% 0.00in /  0mm
22:54 69.9 °F /  21.1 °C 66.5 °F /  19.2 °C 29.65in /  1003.9hPa SW 2.0mph /  3.2km/h 5.0mph /  8km/h 89% 0.00in /  0mm
22:59 69.9 °F /  21.1 °C 66.5 °F /  19.2 °C 29.65in /  1003.9hPa SW 2.0mph /  3.2km/h 5.0mph /  8km/h 89% 0.00in /  0mm
23:04 69.9 °F /  21.1 °C 66.5 °F /  19.2 °C 29.65in /  1003.9hPa SW 2.0mph /  3.2km/h 7.0mph /  11.3km/h 89% 0.00in /  0mm
23:09 69.9 °F /  21.1 °C 66.5 °F /  19.2 °C 29.65in /  1003.9hPa SW 2.0mph /  3.2km/h 7.0mph /  11.3km/h 89% 0.00in /  0mm
23:14 70.0 °F /  21.1 °C 66.3 °F /  19.1 °C 29.65in /  1003.9hPa SW 2.0mph /  3.2km/h 5.0mph /  8km/h 88% 0.00in /  0mm
23:19 70.1 °F /  21.2 °C 66.4 °F /  19.1 °C 29.65in /  1003.9hPa SW 3.0mph /  4.8km/h 5.0mph /  8km/h 88% 0.00in /  0mm
23:24 70.1 °F /  21.2 °C 66.4 °F /  19.1 °C 29.65in /  1003.9hPa SSW 2.0mph /  3.2km/h 6.0mph /  9.7km/h 88% 0.00in /  0mm
23:29 70.2 °F /  21.2 °C 66.5 °F /  19.2 °C 29.65in /  1003.9hPa SW 2.0mph /  3.2km/h 6.0mph /  9.7km/h 88% 0.00in /  0mm
23:34 70.1 °F /  21.2 °C 66.4 °F /  19.1 °C 29.65in /  1003.9hPa Calm   6.0mph /  9.7km/h 88% 0.00in /  0mm
23:39 70.2 °F /  21.2 °C 66.1 °F /  18.9 °C 29.65in /  1003.9hPa SSW 3.0mph /  4.8km/h 4.0mph /  6.4km/h 87% 0.00in /  0mm
23:44 70.2 °F /  21.2 °C 66.1 °F /  18.9 °C 29.65in /  1003.9hPa SSW 1.0mph /  1.6km/h 7.0mph /  11.3km/h 87% 0.00in /  0mm
23:49 70.2 °F /  21.2 °C 66.1 °F /  18.9 °C 29.65in /  1003.9hPa Calm   5.0mph /  8km/h 87% 0.00in /  0mm
23:54 70.3 °F /  21.3 °C 66.2 °F /  19 °C 29.66in /  1004.3hPa West 5.0mph /  8km/h 5.0mph /  8km/h 87% 0.00in /  0mm
23:59 70.3 °F /  21.3 °C 66.2 °F /  19 °C 29.65in /  1003.9hPa West 3.0mph /  4.8km/h 6.0mph /  9.7km/h 87% 0.00in /  0mm
Buffalo, New York, USA
Compliments of Weather Underground - 2.5 mb